Αναφορές METAR

 

LGKZ - Kozani (civ/Army, Greece
Distance from station: ΝΔ 41km
Ενημερώθηκε: 14/12/2019 12:50
Συννεφιά
Συννεφιά
 Ανεμος από ΒΒΔ
Ανεμος: ΒΒΔ 17 km/h
Θερμοκρασία: 8°C
Wind Chill: 5°C
Σημείο Δρόσου: 7°C
Υγρασία: 93%
Βαρόμετρο: 995 hPa
Clouds: Συννεφιά
Visibility: 10 km
Cloud details: Few Clouds 244 m
Σχεδόν νεφελώδης 762 m
Συννεφιά 2134 m
2019/12/14 10:50 LGKZ 141050Z 33009KT 9999 FEW008 BKN025 OVC070 08/07 Q0995
LGTS - Thessaloniki/Mik, Greece
Distance from station: Α 64km
Ενημερώθηκε: 14/12/2019 13:20
Ασθενής βροχή, Mist, Σχεδόν νεφελώδης
Ασθενής βροχή, Mist, Σχεδόν νεφελώδης
 Ανεμος από Δ
Ανεμος: Δ 20 km/h
Θερμοκρασία: 13°C
Σημείο Δρόσου: 12°C
Υγρασία: 94%
Βαρόμετρο: 997 hPa
Περίληψη: Ασθενής βροχή, Mist
Clouds: Σχεδόν νεφελώδης
Visibility: 5 km
Cloud details: Μερικώς νεφελώδης 183 m
Few Clouds 457 m
Σχεδόν νεφελώδης 610 m
2019/12/14 11:20 LGTS 141120Z 27011KT 5000 -RA BR SCT006 FEW015TCU BKN020 13/12 Q0997 TEMPO RA
 
LGIO - Ioannina, Greece
Distance from station: ΝΔ 149km
Ενημερώθηκε: 14/12/2019 13:20
Ασθενής βροχή, Σχεδόν νεφελώδης
Ασθενής βροχή, Σχεδόν νεφελώδης
 Ανεμος από ΒΔ
Ανεμος: ΒΔ 11 km/h
Θερμοκρασία: 9°C
Wind Chill: 7°C
Σημείο Δρόσου: 6°C
Υγρασία: 82%
Βαρόμετρο: 995 hPa
Περίληψη: Ασθενής βροχή
Clouds: Σχεδόν νεφελώδης
Visibility: 10 km
Cloud details: Μερικώς νεφελώδης 274 m
Σχεδόν νεφελώδης 1067 m
2019/12/14 11:20 LGIO 141120Z 32006KT 9999 -RA SCT009 BKN035 09/06 Q0995
LGBL - Nea Anchialos, Greece
Distance from station: ΝΝΑ 154km
Ενημερώθηκε: 14/12/2019 13:20
Ασθενής βροχή, Συννεφιά
Ασθενής βροχή, Συννεφιά
 Ανεμος από ΔΒΔ
Ανεμος: ΔΒΔ 22 km/h
Θερμοκρασία: 11°C
Σημείο Δρόσου: 10°C
Υγρασία: 94%
Βαρόμετρο: 993 hPa
Περίληψη: Ασθενής βροχή
Clouds: Συννεφιά
Visibility: 8 km
Cloud details: Few Clouds 305 m
Σχεδόν νεφελώδης 762 m
Συννεφιά 2438 m
2019/12/14 11:20 LGBL 141120Z 29012KT 8000 -RA FEW010 BKN025 OVC080 11/10 Q0993
 
LGSK - Skiathos Island, Greece
Distance from station: ΝΑ 185km
Ενημερώθηκε: 14/12/2019 12:50
Ασθενής βροχή, Σχεδόν νεφελώδης
Ασθενής βροχή, Σχεδόν νεφελώδης
 Ανεμος από ΝΝΑ
Ανεμος: ΝΝΑ 22 km/h
Θερμοκρασία: 16°C
Σημείο Δρόσου: 12°C
Υγρασία: 77%
Βαρόμετρο: 991 hPa
Περίληψη: Ασθενής βροχή
Clouds: Σχεδόν νεφελώδης
Visibility: 6 km
Cloud details: Μερικώς νεφελώδης 305 m
Σχεδόν νεφελώδης 762 m
2019/12/14 10:50 LGSK 141050Z 16012KT 6000 -RA SCT010 BKN025 16/12 Q0991
LGKV - Kavala/Chrisoupo, Greece
Distance from station: ΑΒΑ 208km
Ενημερώθηκε: 14/12/2019 13:20
Σχεδόν νεφελώδης
Σχεδόν νεφελώδης
 Ανεμος από Α
Ανεμος: Α 19 km/h
Θερμοκρασία: 13°C
Σημείο Δρόσου: 12°C
Υγρασία: 94%
Βαρόμετρο: 996 hPa
Clouds: Σχεδόν νεφελώδης
Visibility: 10 km
Cloud details: Few Clouds 457 m
Few Clouds 549 m
Σχεδόν νεφελώδης 762 m
Σχεδόν νεφελώδης 2134 m
2019/12/14 11:20 LGKV 141120Z 10010KT 9999 FEW015 FEW018TCU BKN025 BKN070 13/12 Q0996
 
LGPZ - Preveza/Aktion, Greece
Distance from station: ΝΔ 217km
Ενημερώθηκε: 14/12/2019 13:20
Σχεδόν νεφελώδης
Σχεδόν νεφελώδης
 Ανεμος από calm
Ανεμος: Απνοια
Θερμοκρασία: 13°C
Σημείο Δρόσου: 10°C
Υγρασία: 82%
Βαρόμετρο: 995 hPa
Clouds: Σχεδόν νεφελώδης
Visibility: 10 km
Cloud details: Few Clouds 549 m
Μερικώς νεφελώδης 762 m
Σχεδόν νεφελώδης 2134 m
2019/12/14 11:20 LGPZ 141120Z 00000KT 9999 FEW018TCU SCT025 BKN070 13/10 Q0995
LGKR - Ioannis Kapodist, Greece
Distance from station: ΔΝΔ 219km
Ενημερώθηκε: 14/12/2019 13:20
Μερικώς νεφελώδης
Μερικώς νεφελώδης
 Ανεμος από ΒΔ
Ανεμος: ΒΔ 28 km/h
Θερμοκρασία: 14°C
Σημείο Δρόσου: 8°C
Υγρασία: 67%
Βαρόμετρο: 995 hPa
Clouds: Μερικώς νεφελώδης
Visibility: 10 km
Cloud details: Few Clouds 549 m
Μερικώς νεφελώδης 762 m
2019/12/14 11:20 LGKR 141120Z 32015KT 9999 FEW018TCU SCT025 14/08 Q0995 NOSIG
 
LGSY - Skiros, Greece
Distance from station: ΝΑ 261km
Ενημερώθηκε: 14/12/2019 12:50
Βροχή, Σχεδόν νεφελώδης
Βροχή, Σχεδόν νεφελώδης
 Ανεμος από ΝΝΑ
Ανεμος: ΝΝΑ 30 km/h, Ριπή: 54 km/h
Θερμοκρασία: 14°C
Σημείο Δρόσου: 12°C
Υγρασία: 88%
Βαρόμετρο: 993 hPa
Περίληψη: Βροχή
Clouds: Σχεδόν νεφελώδης
Visibility: 4 km
Cloud details: Μερικώς νεφελώδης 244 m
Few Clouds 610 m
Σχεδόν νεφελώδης 762 m
2019/12/14 10:50 LGSY 141050Z 16016G29KT 4000 RA SCT008 FEW020TCU BKN025 14/12 Q0993 RMK OVC070 GRN
LGLM - Limnos Island Ar, Greece
Distance from station: ΑΝΑ 266km
Ενημερώθηκε: 14/12/2019 13:20
Μερικώς νεφελώδης
Μερικώς νεφελώδης
 Ανεμος από ΝΝΑ
Ανεμος: ΝΝΑ 30 km/h, Ριπή: 48 km/h
Θερμοκρασία: 16°C
Σημείο Δρόσου: 13°C
Υγρασία: 83%
Βαρόμετρο: 995 hPa
Clouds: Μερικώς νεφελώδης
Visibility: 10 km
Cloud details: Few Clouds 305 m
Few Clouds 549 m
Μερικώς νεφελώδης 610 m
2019/12/14 11:20 LGLM 141120Z 15016G26KT 9999 FEW010 FEW018TCU SCT020 16/13 Q0995
 
LGRX - Araxos (civ/Afb), Greece
Distance from station: ΝΝΔ 271km
Ενημερώθηκε: 14/12/2019 13:20
Ασθενής βροχή, Σχεδόν νεφελώδης
Ασθενής βροχή, Σχεδόν νεφελώδης
 Ανεμος από ΔΒΔ
Ανεμος: ΔΒΔ 9 km/h
Θερμοκρασία: 12°C
Σημείο Δρόσου: 9°C
Υγρασία: 82%
Βαρόμετρο: 995 hPa
Περίληψη: Ασθενής βροχή
Clouds: Σχεδόν νεφελώδης
Visibility: 8 km
Cloud details: Few Clouds 549 m
Μερικώς νεφελώδης 610 m
Σχεδόν νεφελώδης 2438 m
2019/12/14 11:20 LGRX 141120Z 30005KT 8000 -RA FEW018TCU SCT020 BKN080 12/09 Q0995
LGEL - Elefsis (hel-Afb, Greece
Distance from station: ΝΝΑ 297km
Ενημερώθηκε: 14/12/2019 13:20
Βροχή, Συννεφιά
Βροχή, Συννεφιά
 Ανεμος από calm
Ανεμος: Απνοια
Θερμοκρασία: 13°C
Σημείο Δρόσου: 12°C
Υγρασία: 94%
Βαρόμετρο: 991 hPa
Περίληψη: Βροχή
Clouds: Συννεφιά
Visibility: 5 km
Cloud details: Μερικώς νεφελώδης 244 m
Few Clouds 549 m
Σχεδόν νεφελώδης 610 m
Συννεφιά 2134 m
2019/12/14 11:20 LGEL 141120Z 00000KT 5000 RA SCT008 FEW018TCU BKN020 OVC070 13/12 Q0991
 
LGAD - Andravida (civ/A, Greece
Distance from station: ΝΝΔ 301km
Ενημερώθηκε: 14/12/2019 13:20
Ασθενής βροχή, Σχεδόν νεφελώδης
Ασθενής βροχή, Σχεδόν νεφελώδης
 Ανεμος από ΒΑ
Ανεμος: ΒΑ 9 km/h
Θερμοκρασία: 11°C
Σημείο Δρόσου: 8°C
Υγρασία: 82%
Βαρόμετρο: 995 hPa
Περίληψη: Ασθενής βροχή
Clouds: Σχεδόν νεφελώδης
Visibility: 8 km
Cloud details: Few Clouds 549 m
Σχεδόν νεφελώδης 762 m
Σχεδόν νεφελώδης 2438 m
2019/12/14 11:20 LGAD 141120Z 04005KT 8000 -RA FEW018TCU BKN025 BKN080 11/08 Q0995
LGKF - Kefallinia, Greece
Distance from station: ΝΝΔ 305km
Ενημερώθηκε: 14/12/2019 12:50
Σχεδόν νεφελώδης
Σχεδόν νεφελώδης
 Ανεμος από ΒΔ
Ανεμος: ΒΔ 35 km/h
Θερμοκρασία: 14°C
Σημείο Δρόσου: 8°C
Υγρασία: 67%
Βαρόμετρο: 995 hPa
Clouds: Σχεδόν νεφελώδης
Visibility: 10 km
Cloud details: Μερικώς νεφελώδης 427 m
Few Clouds 488 m
Μερικώς νεφελώδης 610 m
Σχεδόν νεφελώδης 2134 m
2019/12/14 10:50 LGKF 141050Z 31019KT 9999 SCT014 FEW016TCU SCT020 BKN070 14/08 Q0995